Time;durP1;ratioP1;P1;durP2;ratioP2;P2;SDS_P1;SDS_P2;PMS_P1;PMS_P2;Temp;Humidity;BMP_temperature;BMP_pressure;BME280_temperature;BME280_humidity;BME280_pressure;Samples;Min_cycle;Max_cycle;Signal;HPM_P1;HPM_P2
2022/03/22 00:00:33;;;;;;;22.85;10.02;;;11.10;99.90;;;;;;4993655;28;20108;-74
2022/03/22 00:02:59;;;;;;;35.72;10.77;;;11.10;99.90;;;;;;5000324;28;20037;-73
2022/03/22 00:05:25;;;;;;;20.70;9.20;;;11.10;99.90;;;;;;5014569;28;20591;-74
2022/03/22 00:07:52;;;;;;;26.38;10.05;;;11.10;99.90;;;;;;5007851;28;20062;-74
2022/03/22 00:10:17;;;;;;;26.55;10.50;;;11.10;99.90;;;;;;4998531;28;20128;-75
2022/03/22 00:12:43;;;;;;;21.17;9.65;;;11.10;99.90;;;;;;5014928;28;20180;-74
2022/03/22 00:15:10;;;;;;;27.60;11.52;;;11.10;99.90;;;;;;5009530;28;20128;-75
2022/03/22 00:17:37;;;;;;;25.20;9.18;;;11.10;99.90;;;;;;4994462;28;20068;-75
2022/03/22 00:20:10;;;;;;;22.88;10.25;;;11.10;99.90;;;;;;5030331;28;20038;-74
2022/03/22 00:22:40;;;;;;;20.98;9.52;;;11.10;99.90;;;;;;5016118;28;20038;-74
2022/03/22 00:25:07;;;;;;;23.75;9.65;;;11.10;99.90;;;;;;5000932;28;20103;-75
2022/03/22 00:27:50;;;;;;;23.23;10.15;;;11.20;99.90;;;;;;5001194;28;20044;-74
2022/03/22 00:30:22;;;;;;;23.02;10.02;;;11.20;99.90;;;;;;4994504;28;20041;-75
2022/03/22 00:32:53;;;;;;;22.45;10.27;;;11.20;99.90;;;;;;5000231;28;20831;-74
2022/03/22 00:35:24;;;;;;;19.75;10.38;;;11.20;99.90;;;;;;5007352;28;20053;-74
2022/03/22 00:37:52;;;;;;;25.77;10.55;;;11.10;99.90;;;;;;5033749;28;20042;-73
2022/03/22 00:40:18;;;;;;;21.23;10.98;;;11.10;99.90;;;;;;5034104;28;20030;-73
2022/03/22 00:42:46;;;;;;;27.80;10.43;;;11.10;99.90;;;;;;5001519;28;20077;-74
2022/03/22 00:45:16;;;;;;;26.73;10.55;;;11.10;99.90;;;;;;5000158;28;20043;-73
2022/03/22 00:47:50;;;;;;;28.40;10.20;;;11.10;99.90;;;;;;5002573;28;20442;-73
2022/03/22 00:50:19;;;;;;;26.75;10.75;;;11.10;99.90;;;;;;5004249;28;20065;-75
2022/03/22 00:52:45;;;;;;;22.20;10.60;;;11.10;99.90;;;;;;5003206;28;20046;-75
2022/03/22 00:55:12;;;;;;;22.55;10.63;;;11.20;99.90;;;;;;5018728;28;20054;-74
2022/03/22 00:57:39;;;;;;;20.98;10.00;;;11.20;99.90;;;;;;5008766;28;20042;-74
2022/03/22 01:00:09;;;;;;;24.15;10.35;;;11.30;99.90;;;;;;5000604;28;20101;-74
2022/03/22 01:02:49;;;;;;;24.23;10.68;;;11.30;99.90;;;;;;5035318;28;20045;-75
2022/03/22 01:05:18;;;;;;;28.80;10.02;;;11.30;99.90;;;;;;5003127;28;20732;-74
2022/03/22 01:07:48;;;;;;;22.20;10.38;;;11.40;99.90;;;;;;5003703;28;20390;-74
2022/03/22 01:10:16;;;;;;;20.30;9.68;;;11.30;99.90;;;;;;5008981;28;20935;-75
2022/03/22 01:12:44;;;;;;;27.40;10.27;;;11.30;99.90;;;;;;5009980;28;20053;-73
2022/03/22 01:15:18;;;;;;;20.35;9.50;;;11.30;99.90;;;;;;5015340;28;20038;-74
2022/03/22 01:17:46;;;;;;;22.63;9.65;;;11.30;99.90;;;;;;5028643;28;20599;-73
2022/03/22 01:20:12;;;;;;;24.00;10.52;;;11.30;99.90;;;;;;5004403;28;20145;-73
2022/03/22 01:22:44;;;;;;;25.45;10.48;;;11.30;99.90;;;;;;5001637;28;20145;-74
2022/03/22 01:25:15;;;;;;;19.88;9.40;;;11.40;99.90;;;;;;5014062;28;20588;-73
2022/03/22 01:27:42;;;;;;;22.00;9.40;;;11.30;99.90;;;;;;5038294;28;20041;-74
2022/03/22 01:30:10;;;;;;;25.17;9.48;;;11.40;99.90;;;;;;5002647;28;20061;-73
2022/03/22 01:32:36;;;;;;;17.80;9.15;;;11.40;99.90;;;;;;5037730;28;20394;-74
2022/03/22 01:35:03;;;;;;;17.77;9.88;;;11.40;99.90;;;;;;5001806;28;20065;-73
2022/03/22 01:37:29;;;;;;;19.33;8.93;;;11.40;99.90;;;;;;5032949;28;20116;-73
2022/03/22 01:39:56;;;;;;;25.70;9.15;;;11.30;99.90;;;;;;5036829;28;20500;-73
2022/03/22 01:42:22;;;;;;;15.90;8.70;;;11.30;99.90;;;;;;5002037;28;20050;-73
2022/03/22 01:44:52;;;;;;;20.73;8.60;;;11.30;99.90;;;;;;5001820;28;20045;-72
2022/03/22 01:47:20;;;;;;;23.73;9.07;;;11.30;99.90;;;;;;5034181;28;20041;-74
2022/03/22 01:49:47;;;;;;;18.02;8.55;;;11.30;99.90;;;;;;5000786;28;20045;-74
2022/03/22 01:52:19;;;;;;;18.40;8.13;;;11.30;99.90;;;;;;5014405;28;20124;-74
2022/03/22 01:54:50;;;;;;;17.55;7.88;;;11.40;99.90;;;;;;5006280;28;20473;-74
2022/03/22 01:57:17;;;;;;;16.58;8.20;;;11.30;99.90;;;;;;5000729;28;20418;-73
2022/03/22 01:59:44;;;;;;;15.02;8.00;;;11.30;99.90;;;;;;4989260;28;20065;-74
2022/03/22 02:07:43;;;;;;;24.23;8.40;;;11.10;99.90;;;;;;5004123;28;20048;-75
2022/03/22 02:10:09;;;;;;;20.80;8.50;;;11.10;99.90;;;;;;4999262;28;20077;-75
2022/03/22 02:12:35;;;;;;;19.98;8.55;;;11.00;99.90;;;;;;5006596;28;20050;-73
2022/03/22 02:15:01;;;;;;;16.30;8.15;;;11.00;99.90;;;;;;5003923;28;20485;-74
2022/03/22 02:17:27;;;;;;;17.00;8.13;;;11.00;99.90;;;;;;5035436;28;20041;-74
2022/03/22 02:19:55;;;;;;;16.27;8.25;;;10.90;99.90;;;;;;4998109;28;20042;-73
2022/03/22 02:22:30;;;;;;;20.23;8.07;;;10.90;99.90;;;;;;4981915;28;20048;-74
2022/03/22 02:24:56;;;;;;;15.18;8.20;;;10.80;99.90;;;;;;5029388;28;20469;-74
2022/03/22 02:27:25;;;;;;;17.20;8.98;;;10.80;99.90;;;;;;5002839;28;20038;-74
2022/03/22 02:29:50;;;;;;;17.80;7.53;;;10.80;99.90;;;;;;5005240;28;20038;-74
2022/03/22 02:32:23;;;;;;;18.30;8.23;;;10.80;99.90;;;;;;5030192;28;20047;-74
2022/03/22 02:34:49;;;;;;;18.13;8.80;;;10.80;99.90;;;;;;5012711;28;20045;-74
2022/03/22 02:37:15;;;;;;;19.35;8.00;;;10.70;99.90;;;;;;5032861;28;20037;-74
2022/03/22 02:39:41;;;;;;;20.55;8.70;;;10.70;99.90;;;;;;5001563;28;20942;-74
2022/03/22 02:42:07;;;;;;;22.38;9.05;;;10.60;99.90;;;;;;5016929;28;20045;-74
2022/03/22 02:44:33;;;;;;;16.40;8.15;;;10.70;99.90;;;;;;5003840;28;20437;-74
2022/03/22 02:46:59;;;;;;;19.67;8.10;;;10.60;99.90;;;;;;5016793;28;20108;-73
2022/03/22 02:49:24;;;;;;;16.60;8.35;;;10.60;99.90;;;;;;4997310;28;20034;-73
2022/03/22 02:51:50;;;;;;;18.35;8.43;;;10.60;99.90;;;;;;4995482;28;20434;-73
2022/03/22 02:54:16;;;;;;;20.13;8.00;;;10.50;99.90;;;;;;5034293;28;20542;-75
2022/03/22 02:56:42;;;;;;;24.35;8.60;;;10.40;99.90;;;;;;4998461;28;20045;-74
2022/03/22 02:59:08;;;;;;;20.65;9.68;;;10.30;99.90;;;;;;5001207;28;20030;-73
2022/03/22 03:01:34;;;;;;;24.27;8.95;;;10.30;99.90;;;;;;5000009;28;20027;-73
2022/03/22 03:04:01;;;;;;;19.10;8.45;;;10.20;99.90;;;;;;5027859;28;20045;-73
2022/03/22 03:06:30;;;;;;;17.35;9.07;;;10.10;99.90;;;;;;5028058;28;20673;-73
2022/03/22 03:08:58;;;;;;;16.17;8.20;;;10.10;99.90;;;;;;5029638;28;20100;-73
2022/03/22 03:11:26;;;;;;;19.95;9.30;;;10.00;99.90;;;;;;5029953;28;20540;-73
2022/03/22 03:16:38;;;;;;;20.48;8.73;;;9.90;99.90;;;;;;4994525;28;20045;-73
2022/03/22 03:19:04;;;;;;;19.73;8.60;;;9.90;99.90;;;;;;5012901;28;20030;-74
2022/03/22 03:21:30;;;;;;;21.63;8.75;;;10.00;99.90;;;;;;5033319;28;20088;-73
2022/03/22 03:23:55;;;;;;;20.90;8.63;;;10.00;99.90;;;;;;5000918;28;20042;-73
2022/03/22 03:26:21;;;;;;;18.02;8.65;;;10.00;99.90;;;;;;4999914;28;20076;-73
2022/03/22 03:28:48;;;;;;;18.55;9.07;;;10.00;99.90;;;;;;4997677;28;20120;-72
2022/03/22 03:31:14;;;;;;;18.23;8.95;;;9.90;99.90;;;;;;5011821;28;21195;-74
2022/03/22 03:33:40;;;;;;;17.15;8.25;;;9.90;99.90;;;;;;5012082;28;20124;-73
2022/03/22 03:36:05;;;;;;;19.95;8.90;;;9.90;99.90;;;;;;4997347;28;20034;-73
2022/03/22 03:38:31;;;;;;;20.70;9.52;;;9.90;99.90;;;;;;5006377;28;20125;-73
2022/03/22 03:43:41;;;;;;;19.45;9.73;;;9.90;99.90;;;;;;4997045;28;20045;-74
2022/03/22 03:48:52;;;;;;;23.40;10.20;;;9.80;99.90;;;;;;4995301;28;20077;-74
2022/03/22 03:51:19;;;;;;;21.55;9.68;;;9.80;99.90;;;;;;5027416;28;20444;-73
2022/03/22 03:53:45;;;;;;;20.20;9.38;;;9.80;99.90;;;;;;5031102;28;20053;-74
2022/03/22 03:56:11;;;;;;;18.88;8.93;;;9.80;99.90;;;;;;4995756;28;20081;-73
2022/03/22 03:58:37;;;;;;;17.08;9.15;;;9.80;99.90;;;;;;5027715;28;20062;-73
2022/03/22 04:01:03;;;;;;;18.60;9.73;;;9.80;99.90;;;;;;5003570;28;20073;-74
2022/03/22 04:03:29;;;;;;;26.13;9.32;;;9.70;99.90;;;;;;4999721;28;20400;-74
2022/03/22 04:05:54;;;;;;;15.80;9.05;;;9.80;99.90;;;;;;5013381;28;20092;-73
2022/03/22 04:08:20;;;;;;;19.52;9.52;;;9.90;99.90;;;;;;5008840;28;20560;-74
2022/03/22 04:10:47;;;;;;;20.05;9.55;;;9.90;99.90;;;;;;4996372;28;20034;-74
2022/03/22 04:13:13;;;;;;;21.13;9.00;;;10.00;99.90;;;;;;5012702;28;20053;-73
2022/03/22 04:15:40;;;;;;;18.90;9.90;;;10.00;99.90;;;;;;4993607;28;20046;-74
2022/03/22 04:18:06;;;;;;;19.58;9.13;;;10.00;99.90;;;;;;5000003;28;20044;-73
2022/03/22 04:20:32;;;;;;;21.83;9.63;;;10.00;99.90;;;;;;5017182;28;20072;-73
2022/03/22 04:22:58;;;;;;;18.33;8.95;;;9.90;99.90;;;;;;5002898;28;20869;-73
2022/03/22 04:25:24;;;;;;;24.23;9.77;;;9.90;99.90;;;;;;5027891;28;20038;-74
2022/03/22 04:33:20;;;;;;;22.48;9.95;;;9.70;99.90;;;;;;4997534;28;21167;-73
2022/03/22 04:35:46;;;;;;;17.95;9.80;;;9.70;99.90;;;;;;4999764;28;20521;-73
2022/03/22 04:38:11;;;;;;;23.33;9.73;;;9.60;99.90;;;;;;4998893;28;20046;-73
2022/03/22 04:40:39;;;;;;;22.60;10.23;;;9.60;99.90;;;;;;4997100;28;20038;-73
2022/03/22 04:43:06;;;;;;;22.63;10.02;;;9.60;99.90;;;;;;4998242;28;20042;-72
2022/03/22 04:45:32;;;;;;;26.48;11.02;;;9.50;99.90;;;;;;4997807;28;20141;-73
2022/03/22 04:47:58;;;;;;;21.98;9.70;;;9.50;99.90;;;;;;5008007;28;20201;-73
2022/03/22 04:50:24;;;;;;;27.05;10.10;;;9.50;99.90;;;;;;4996961;28;20384;-74
2022/03/22 04:58:18;;;;;;;18.40;9.63;;;9.50;99.90;;;;;;4995246;28;20056;-72
2022/03/22 05:00:46;;;;;;;23.95;9.88;;;9.50;99.90;;;;;;4994557;28;20392;-73
2022/03/22 05:03:11;;;;;;;21.45;9.85;;;9.50;99.90;;;;;;4994018;28;20061;-73
2022/03/22 05:08:22;;;;;;;19.80;9.57;;;9.60;99.90;;;;;;4995922;28;20068;-73
2022/03/22 05:10:48;;;;;;;23.38;9.48;;;9.60;99.90;;;;;;4993951;28;20049;-73
2022/03/22 05:13:14;;;;;;;20.17;10.15;;;9.60;99.90;;;;;;4996090;28;20034;-73
2022/03/22 05:15:39;;;;;;;20.05;9.63;;;9.60;99.90;;;;;;4990444;28;20122;-72
2022/03/22 05:18:05;;;;;;;20.08;9.30;;;9.60;99.90;;;;;;4993407;28;20043;-73
2022/03/22 05:20:31;;;;;;;18.08;9.50;;;9.60;99.90;;;;;;4993514;28;20136;-73
2022/03/22 05:22:58;;;;;;;27.55;10.25;;;9.60;99.90;;;;;;4999917;28;20042;-74
2022/03/22 05:25:31;;;;;;;18.77;9.52;;;9.60;99.90;;;;;;5014733;28;20397;-74
2022/03/22 05:28:03;;;;;;;20.63;9.25;;;9.70;99.90;;;;;;4997122;28;20093;-73
2022/03/22 05:30:32;;;;;;;19.92;9.82;;;9.80;99.90;;;;;;4999841;28;20049;-73
2022/03/22 05:32:57;;;;;;;18.70;9.98;;;9.90;99.90;;;;;;5032275;28;20369;-74
2022/03/22 05:35:24;;;;;;;19.77;9.63;;;9.90;99.90;;;;;;5011813;28;20046;-74
2022/03/22 05:37:51;;;;;;;22.35;11.02;;;9.90;99.90;;;;;;5004376;28;20521;-73
2022/03/22 05:40:17;;;;;;;22.13;11.00;;;9.80;99.90;;;;;;4999383;28;20113;-73
2022/03/22 05:42:43;;;;;;;25.83;11.32;;;9.80;99.90;;;;;;5013484;28;20037;-72
2022/03/22 05:45:11;;;;;;;18.63;10.40;;;9.80;99.90;;;;;;4997302;28;20141;-73
2022/03/22 05:47:38;;;;;;;17.35;10.70;;;9.70;99.90;;;;;;5014519;28;20038;-73
2022/03/22 05:50:05;;;;;;;23.02;10.75;;;9.80;99.90;;;;;;5012826;28;20038;-73
2022/03/22 05:52:32;;;;;;;20.95;10.00;;;9.80;99.90;;;;;;5029236;28;20050;-73
2022/03/22 05:54:57;;;;;;;19.27;9.52;;;9.80;99.90;;;;;;5002937;28;20092;-73
2022/03/22 05:57:23;;;;;;;17.25;9.63;;;9.70;99.90;;;;;;5029451;28;20499;-72
2022/03/22 05:59:49;;;;;;;21.33;9.80;;;9.70;99.90;;;;;;5002047;28;20073;-73
2022/03/22 06:02:15;;;;;;;17.08;9.40;;;9.70;99.90;;;;;;4999713;28;20042;-74
2022/03/22 06:04:41;;;;;;;15.50;9.00;;;9.80;99.90;;;;;;5001459;28;20048;-73
2022/03/22 06:07:07;;;;;;;19.77;9.13;;;9.80;99.90;;;;;;5000408;28;20068;-73
2022/03/22 06:09:33;;;;;;;20.48;8.98;;;9.70;99.90;;;;;;5017877;28;20061;-73
2022/03/22 06:11:58;;;;;;;18.08;9.52;;;9.70;99.90;;;;;;4999258;28;20070;-74
2022/03/22 06:14:24;;;;;;;15.32;8.40;;;9.80;99.90;;;;;;5002150;28;20072;-73
2022/03/22 06:16:50;;;;;;;17.17;8.90;;;9.80;99.90;;;;;;5002061;28;20034;-74
2022/03/22 06:19:16;;;;;;;17.08;8.30;;;9.80;99.90;;;;;;5036202;28;20050;-74
2022/03/22 06:21:42;;;;;;;16.33;8.45;;;9.80;99.90;;;;;;5016892;28;20034;-73
2022/03/22 06:24:08;;;;;;;18.42;8.38;;;9.90;99.90;;;;;;5000079;28;20038;-74
2022/03/22 06:26:34;;;;;;;17.65;7.60;;;9.90;99.90;;;;;;5039906;28;20053;-74
2022/03/22 06:29:00;;;;;;;13.93;7.82;;;10.00;99.90;;;;;;5005093;28;20512;-74
2022/03/22 06:31:27;;;;;;;19.88;7.22;;;10.00;99.90;;;;;;4999435;28;20058;-72
2022/03/22 06:33:55;;;;;;;18.40;9.40;;;10.10;99.90;;;;;;5000484;28;20046;-75
2022/03/22 06:36:20;;;;;;;21.90;8.68;;;10.20;99.90;;;;;;4999742;28;20899;-75
2022/03/22 06:38:46;;;;;;;20.45;7.50;;;10.30;99.90;;;;;;5000693;28;20037;-73
2022/03/22 06:41:12;;;;;;;15.45;7.60;;;10.40;99.90;;;;;;5030520;28;20041;-74
2022/03/22 06:43:37;;;;;;;18.35;7.88;;;10.30;99.90;;;;;;5035632;28;20584;-73
2022/03/22 06:46:03;;;;;;;19.17;7.95;;;10.30;99.90;;;;;;5029484;28;20237;-73
2022/03/22 06:48:29;;;;;;;20.25;9.05;;;10.20;99.90;;;;;;5003510;28;20121;-73
2022/03/22 06:50:55;;;;;;;19.15;8.32;;;10.20;99.90;;;;;;5030879;28;20037;-72
2022/03/22 06:53:21;;;;;;;15.93;7.53;;;10.10;99.90;;;;;;4999886;28;20046;-73
2022/03/22 06:55:47;;;;;;;26.27;9.45;;;9.70;99.90;;;;;;5023574;28;20132;-73
2022/03/22 06:58:16;;;;;;;20.88;10.77;;;9.70;99.90;;;;;;5027947;28;20487;-74
2022/03/22 07:00:42;;;;;;;19.65;10.35;;;9.60;99.90;;;;;;5010503;28;20133;-74
2022/03/22 07:03:07;;;;;;;21.83;10.15;;;9.60;99.90;;;;;;5000495;28;20073;-76
2022/03/22 07:05:33;;;;;;;18.70;11.40;;;9.60;99.90;;;;;;5014439;28;20035;-74
2022/03/22 07:07:59;;;;;;;22.00;9.48;;;9.60;99.90;;;;;;5008125;28;20045;-75
2022/03/22 07:10:26;;;;;;;16.50;10.05;;;9.50;99.90;;;;;;5030519;28;20054;-74
2022/03/22 07:12:57;;;;;;;17.13;9.77;;;9.50;99.90;;;;;;5009996;28;20058;-75
2022/03/22 07:15:37;;;;;;;21.05;10.13;;;9.50;99.90;;;;;;5027747;28;20141;-74
2022/03/22 07:18:08;;;;;;;21.67;10.93;;;9.50;99.90;;;;;;5004659;28;20366;-74
2022/03/22 07:20:36;;;;;;;18.27;10.13;;;9.50;99.90;;;;;;4999730;28;20548;-74
2022/03/22 07:23:03;;;;;;;39.75;11.23;;;9.50;99.90;;;;;;4996932;28;20046;-75
2022/03/22 07:25:29;;;;;;;24.40;12.55;;;9.60;99.90;;;;;;4997533;28;20044;-75
2022/03/22 07:27:55;;;;;;;24.75;12.77;;;9.50;99.90;;;;;;4998382;28;20033;-75
2022/03/22 07:30:21;;;;;;;24.30;13.07;;;9.60;99.90;;;;;;4996717;28;20042;-74
2022/03/22 07:32:46;;;;;;;25.00;13.38;;;9.60;99.90;;;;;;5000501;28;20038;-75
2022/03/22 07:35:17;;;;;;;27.73;13.68;;;9.60;99.90;;;;;;5012679;28;20042;-75
2022/03/22 07:37:43;;;;;;;32.63;13.75;;;9.60;99.90;;;;;;5003832;28;20049;-75
2022/03/22 07:40:10;;;;;;;33.92;14.27;;;9.60;99.90;;;;;;5002093;28;20042;-74
2022/03/22 07:42:37;;;;;;;44.88;17.58;;;9.70;99.90;;;;;;5000009;28;20050;-75
2022/03/22 07:45:10;;;;;;;36.95;17.60;;;9.60;99.90;;;;;;5010131;28;20096;-74
2022/03/22 07:47:36;;;;;;;;;;;9.80;99.90;;;;;;5030956;28;20509;-75
2022/03/22 07:53:05;;;;;;;36.42;16.25;;;9.80;99.90;;;;;;4995826;28;20117;-75
2022/03/22 07:55:37;;;;;;;25.63;13.77;;;9.80;99.90;;;;;;4999137;28;20159;-75
2022/03/22 07:58:07;;;;;;;30.33;15.40;;;9.80;99.90;;;;;;5012938;28;20068;-75
2022/03/22 08:00:35;;;;;;;30.35;14.00;;;9.80;99.90;;;;;;4976285;28;20050;-75
2022/03/22 08:03:03;;;;;;;24.13;12.15;;;9.80;99.90;;;;;;5011896;28;20038;-74
2022/03/22 08:05:34;;;;;;;33.40;16.10;;;9.90;99.90;;;;;;4999870;28;20038;-74
2022/03/22 08:08:01;;;;;;;31.45;15.48;;;9.90;99.90;;;;;;5000716;28;20124;-75
2022/03/22 08:10:27;;;;;;;32.28;14.63;;;10.00;99.90;;;;;;5006629;28;20144;-75
2022/03/22 08:12:56;;;;;;;36.95;17.60;;;10.10;99.90;;;;;;4987863;28;20068;-75
2022/03/22 08:15:22;;;;;;;27.92;15.35;;;10.00;99.90;;;;;;5028930;28;20297;-76
2022/03/22 08:17:48;;;;;;;26.85;13.60;;;10.10;99.90;;;;;;4993328;28;20190;-76
2022/03/22 08:20:15;;;;;;;34.35;14.75;;;10.00;99.90;;;;;;4984564;28;20045;-76
2022/03/22 08:23:03;;;;;;;29.92;13.57;;;10.10;99.90;;;;;;4985974;28;20033;-77
2022/03/22 08:25:31;;;;;;;29.00;13.77;;;10.10;99.90;;;;;;4983749;28;20046;-76
2022/03/22 08:28:02;;;;;;;25.83;12.32;;;10.10;99.90;;;;;;5004087;28;20109;-76
2022/03/22 08:30:29;;;;;;;31.55;13.02;;;10.00;99.90;;;;;;5026638;28;20050;-76
2022/03/22 08:32:58;;;;;;;25.92;11.88;;;10.10;99.90;;;;;;4999962;28;20038;-75
2022/03/22 08:35:26;;;;;;;30.38;13.77;;;10.00;99.90;;;;;;5027515;28;20057;-76
2022/03/22 08:37:53;;;;;;;27.77;13.02;;;9.90;99.90;;;;;;4991628;28;20448;-76
2022/03/22 08:40:19;;;;;;;28.30;11.68;;;9.90;99.90;;;;;;4996674;28;20095;-76
2022/03/22 08:42:48;;;;;;;19.90;9.70;;;9.80;99.90;;;;;;5005621;28;20064;-76
2022/03/22 08:45:15;;;;;;;19.02;8.98;;;9.70;99.90;;;;;;5005579;28;20042;-76
2022/03/22 08:47:42;;;;;;;19.55;9.02;;;9.60;99.90;;;;;;4995027;28;20161;-76
2022/03/22 08:50:10;;;;;;;21.05;9.38;;;9.70;99.90;;;;;;4987901;28;20037;-76
2022/03/22 08:52:40;;;;;;;24.38;11.45;;;9.60;99.90;;;;;;4984148;28;20452;-77
2022/03/22 08:55:07;;;;;;;16.42;10.43;;;9.70;99.90;;;;;;4991816;28;20081;-76
2022/03/22 08:57:34;;;;;;;19.95;10.65;;;9.90;99.90;;;;;;5003502;28;20035;-77
2022/03/22 09:00:01;;;;;;;26.00;10.38;;;9.90;99.90;;;;;;4993175;28;20062;-78
2022/03/22 09:02:31;;;;;;;22.77;10.60;;;10.00;99.90;;;;;;5030298;28;20034;-76
2022/03/22 09:07:47;;;;;;;26.50;9.95;;;10.10;99.90;;;;;;4973062;28;20048;-77
2022/03/22 09:10:14;;;;;;;25.88;10.32;;;10.10;99.90;;;;;;5003821;28;20052;-77
2022/03/22 09:12:42;;;;;;;24.05;10.95;;;10.10;99.90;;;;;;4999581;28;20117;-76
2022/03/22 09:15:11;;;;;;;25.73;10.18;;;10.20;99.90;;;;;;4992031;28;20049;-77
2022/03/22 09:17:37;;;;;;;25.55;10.68;;;10.20;99.90;;;;;;4999548;28;20059;-76
2022/03/22 09:20:04;;;;;;;23.48;9.90;;;10.30;99.90;;;;;;4994967;28;20045;-76
2022/03/22 09:22:30;;;;;;;26.13;8.18;;;10.30;99.90;;;;;;4992012;28;20046;-75
2022/03/22 09:24:56;;;;;;;17.35;6.55;;;10.20;99.90;;;;;;5022723;28;20034;-76
2022/03/22 09:27:24;;;;;;;17.63;7.22;;;9.90;99.90;;;;;;5000437;28;20052;-77
2022/03/22 09:29:50;;;;;;;20.00;7.70;;;9.90;99.90;;;;;;4973016;28;20046;-77
2022/03/22 09:32:16;;;;;;;13.88;6.47;;;10.00;99.90;;;;;;5000732;28;20088;-76
2022/03/22 09:34:43;;;;;;;16.92;6.50;;;10.00;99.90;;;;;;4990649;28;20094;-77
2022/03/22 09:37:09;;;;;;;20.08;6.88;;;10.10;99.90;;;;;;4994431;28;20034;-76
2022/03/22 09:39:35;;;;;;;15.48;5.55;;;10.10;99.90;;;;;;5001114;28;20076;-75
2022/03/22 09:42:03;;;;;;;15.70;5.57;;;10.30;99.90;;;;;;4989123;28;20045;-76
2022/03/22 09:44:29;;;;;;;22.08;7.15;;;10.50;99.90;;;;;;5024014;28;20048;-75
2022/03/22 09:46:58;;;;;;;15.90;5.88;;;10.60;99.90;;;;;;4987578;28;20535;-76
2022/03/22 09:49:24;;;;;;;14.07;5.93;;;10.70;99.90;;;;;;4987747;28;20048;-76
2022/03/22 09:51:50;;;;;;;13.82;5.40;;;10.70;99.90;;;;;;4994404;28;20042;-76
2022/03/22 09:54:18;;;;;;;35.47;5.85;;;10.70;99.90;;;;;;4994285;28;20038;-76
2022/03/22 09:56:45;;;;;;;16.92;5.18;;;10.90;99.90;;;;;;4998972;28;20477;-76
2022/03/22 09:59:11;;;;;;;15.02;5.45;;;11.40;99.90;;;;;;4978627;28;20034;-76
2022/03/22 10:01:38;;;;;;;16.25;5.28;;;11.60;99.90;;;;;;4991776;28;20045;-75
2022/03/22 10:04:12;;;;;;;15.38;5.07;;;11.50;99.90;;;;;;5007014;28;20052;-75
2022/03/22 10:06:57;;;;;;;15.10;5.32;;;11.30;99.90;;;;;;5021117;28;20072;-75
2022/03/22 10:09:31;;;;;;;14.27;4.50;;;11.50;99.90;;;;;;4989040;28;20049;-75
2022/03/22 10:11:57;;;;;;;13.55;4.47;;;12.60;99.90;;;;;;4992749;28;28387;-76
2022/03/22 10:14:41;;;;;;;12.13;4.25;;;12.70;99.90;;;;;;4986927;28;20092;-77
2022/03/22 10:17:13;;;;;;;13.93;4.70;;;12.70;99.90;;;;;;5005059;28;20646;-76
2022/03/22 10:19:43;;;;;;;14.10;5.05;;;12.90;99.90;;;;;;4989781;28;20117;-75
2022/03/22 10:22:10;;;;;;;9.88;4.10;;;13.40;99.90;;;;;;5024700;28;20381;-76
2022/03/22 10:24:47;;;;;;;10.52;4.30;;;13.40;99.90;;;;;;4984338;28;20045;-75
2022/03/22 10:27:27;;;;;;;11.88;4.30;;;13.30;99.90;;;;;;5032825;28;20561;-75
2022/03/22 10:29:56;;;;;;;11.15;4.13;;;14.10;99.90;;;;;;5001546;28;20057;-75
2022/03/22 10:32:53;;;;;;;13.88;4.40;;;14.60;99.90;;;;;;4979635;28;20187;-75
2022/03/22 10:35:27;;;;;;;13.82;4.43;;;15.40;99.90;;;;;;4955426;28;20070;-76
2022/03/22 10:37:55;;;;;;;11.73;3.83;;;15.20;99.90;;;;;;4983508;28;20156;-76
2022/03/22 10:40:23;;;;;;;11.20;3.88;;;14.90;99.90;;;;;;5008472;28;20034;-74
2022/03/22 10:42:51;;;;;;;8.45;3.78;;;16.10;99.90;;;;;;5025185;28;20042;-75
2022/03/22 10:45:17;;;;;;;11.00;3.72;;;15.70;99.90;;;;;;5005482;28;20041;-76
2022/03/22 10:47:43;;;;;;;15.93;4.38;;;15.80;99.90;;;;;;5025719;28;20046;-75
2022/03/22 10:50:10;;;;;;;11.57;4.32;;;15.30;99.90;;;;;;4986457;28;20042;-75
2022/03/22 10:52:50;;;;;;;12.05;3.85;;;16.40;99.90;;;;;;4993735;28;20053;-77
2022/03/22 10:55:19;;;;;;;10.00;3.53;;;16.70;99.90;;;;;;5011740;28;20080;-76
2022/03/22 10:57:51;;;;;;;9.60;3.78;;;16.60;99.30;;;;;;5026783;28;20103;-76
2022/03/22 11:00:18;;;;;;;7.50;3.58;;;16.90;99.60;;;;;;4979431;28;20045;-76
2022/03/22 11:02:51;;;;;;;9.07;3.40;;;16.80;99.90;;;;;;4993025;28;20034;-75
2022/03/22 11:05:19;;;;;;;16.83;3.47;;;17.60;98.40;;;;;;5023448;28;20048;-76
2022/03/22 11:07:47;;;;;;;14.30;4.03;;;16.40;98.50;;;;;;4997047;28;20117;-76
2022/03/22 11:10:15;;;;;;;9.75;3.17;;;16.40;98.40;;;;;;4993788;28;20072;-76
2022/03/22 11:12:42;;;;;;;14.57;4.15;;;16.20;98.60;;;;;;4999572;28;20103;-77
2022/03/22 11:15:09;;;;;;;11.23;3.72;;;16.80;98.10;;;;;;4992814;28;20049;-75
2022/03/22 11:17:35;;;;;;;9.85;4.03;;;17.10;97.70;;;;;;5019364;28;20076;-76
2022/03/22 11:20:06;;;;;;;14.07;4.53;;;16.80;97.80;;;;;;5024846;28;20038;-77
2022/03/22 11:22:33;;;;;;;13.77;3.95;;;17.30;97.70;;;;;;5019683;28;20041;-76
2022/03/22 11:25:10;;;;;;;15.05;3.90;;;16.70;97.90;;;;;;4995734;28;20045;-76
2022/03/22 11:27:38;;;;;;;11.25;3.80;;;17.20;97.50;;;;;;4993123;28;20053;-75
2022/03/22 11:30:05;;;;;;;9.48;3.50;;;17.00;97.60;;;;;;5006275;28;20030;-76
2022/03/22 11:35:17;;;;;;;13.18;4.05;;;17.20;97.40;;;;;;4994728;28;20075;-76
2022/03/22 11:38:00;;;;;;;9.60;3.60;;;16.40;97.70;;;;;;5006313;28;20042;-75
2022/03/22 11:43:13;;;;;;;10.65;4.07;;;17.40;97.30;;;;;;4989762;28;20048;-78
2022/03/22 11:46:05;;;;;;;9.75;3.78;;;18.10;96.70;;;;;;5002514;28;20046;-76
2022/03/22 11:48:32;;;;;;;11.15;3.42;;;18.10;96.70;;;;;;4994347;28;20072;-76
2022/03/22 11:51:09;;;;;;;8.05;3.65;;;18.20;96.00;;;;;;5021251;28;20074;-74
2022/03/22 11:53:43;;;;;;;8.82;3.97;;;18.20;96.40;;;;;;5001495;28;20037;-76
2022/03/22 11:56:10;;;;;;;11.02;4.68;;;17.90;96.80;;;;;;5024194;28;20060;-75
2022/03/22 11:58:36;;;;;;;13.32;4.53;;;17.90;96.40;;;;;;4991669;28;20049;-75
2022/03/22 12:01:03;;;;;;;9.75;3.70;;;17.40;96.30;;;;;;4988222;28;20038;-76
2022/03/22 12:03:35;;;;;;;12.82;3.65;;;18.40;96.00;;;;;;5000237;28;20034;-78
2022/03/22 12:06:11;;;;;;;11.57;3.95;;;18.90;95.10;;;;;;4992228;28;20404;-76
2022/03/22 12:08:37;;;;;;;11.05;3.75;;;18.80;95.20;;;;;;5022177;28;21001;-76
2022/03/22 12:11:04;;;;;;;13.32;3.80;;;18.10;95.40;;;;;;5028899;28;20040;-77
2022/03/22 12:13:30;;;;;;;8.70;4.00;;;17.80;95.80;;;;;;5023263;28;20042;-76
2022/03/22 12:16:01;;;;;;;9.63;3.78;;;18.30;95.40;;;;;;5022465;28;20038;-76
2022/03/22 12:18:28;;;;;;;10.07;3.58;;;18.10;95.30;;;;;;4999468;28;20705;-77
2022/03/22 12:20:56;;;;;;;10.02;3.95;;;19.40;95.40;;;;;;4998574;28;20073;-76
2022/03/22 12:23:23;;;;;;;6.78;3.10;;;19.30;94.70;;;;;;4992547;28;24924;-77
2022/03/22 12:25:49;;;;;;;7.72;3.13;;;19.50;94.00;;;;;;4993747;28;20041;-75
2022/03/22 12:28:16;;;;;;;9.60;3.40;;;20.00;93.70;;;;;;5020749;28;20045;-77
2022/03/22 12:30:43;;;;;;;8.73;3.72;;;18.80;94.00;;;;;;4992856;28;20048;-77
2022/03/22 12:33:14;;;;;;;9.70;3.60;;;18.40;94.40;;;;;;5024304;28;20112;-76
2022/03/22 12:35:41;;;;;;;8.38;3.67;;;19.40;94.20;;;;;;5000560;28;20042;-75
2022/03/22 12:38:08;;;;;;;10.52;4.03;;;19.80;93.40;;;;;;4993895;28;20531;-75
2022/03/22 12:40:35;;;;;;;8.48;3.60;;;19.50;93.60;;;;;;5010300;28;20119;-76
2022/03/22 12:43:03;;;;;;;12.15;3.85;;;19.70;93.90;;;;;;4996195;28;20572;-76
2022/03/22 12:45:31;;;;;;;12.02;3.78;;;19.50;93.80;;;;;;4993679;28;20052;-76
2022/03/22 12:48:03;;;;;;;11.10;3.95;;;18.40;94.40;;;;;;4996530;28;20038;-75
2022/03/22 12:50:29;;;;;;;7.53;3.47;;;19.40;94.20;;;;;;5008888;28;20157;-76
2022/03/22 12:52:55;;;;;;;13.48;3.60;;;20.40;93.60;;;;;;4981081;28;20719;-77
2022/03/22 12:55:22;;;;;;;9.98;3.58;;;20.70;93.20;;;;;;5000683;28;20419;-79
2022/03/22 12:57:51;;;;;;;10.73;3.45;;;20.90;92.60;;;;;;5036565;28;20038;-76
2022/03/22 13:00:29;;;;;;;9.25;3.72;;;20.00;93.40;;;;;;5001101;28;20677;-76
2022/03/22 13:02:56;;;;;;;7.95;3.72;;;19.70;93.80;;;;;;5002452;28;20388;-75
2022/03/22 13:05:27;;;;;;;8.13;3.33;;;20.80;93.20;;;;;;5004540;28;20042;-75
2022/03/22 13:07:53;;;;;;;9.52;3.35;;;21.00;93.00;;;;;;5006278;28;20037;-75
2022/03/22 13:13:14;;;;;;;12.75;3.75;;;19.50;93.90;;;;;;5000578;28;20041;-77
2022/03/22 13:15:52;;;;;;;11.82;3.30;;;18.60;94.30;;;;;;5001558;28;20050;-76
2022/03/22 13:18:19;;;;;;;7.15;3.50;;;19.50;94.30;;;;;;5023827;28;20095;-76
2022/03/22 13:20:46;;;;;;;7.88;3.80;;;19.10;93.80;;;;;;5040179;28;20096;-78
2022/03/22 13:23:16;;;;;;;8.65;3.80;;;18.40;94.40;;;;;;5035806;28;20046;-76